Time;durP1;ratioP1;P1;durP2;ratioP2;P2;SDS_P1;SDS_P2;PMS_P1;PMS_P2;Temp;Humidity;BMP_temperature;BMP_pressure;BME280_temperature;BME280_humidity;BME280_pressure;Samples;Min_cycle;Max_cycle;Signal;HPM_P1;HPM_P2
2023/12/08 00:01:00;;;;;;;24.33;12.85;;;;;;;;;;4996973;28;20150;-57
2023/12/08 00:03:26;;;;;;;21.15;13.05;;;;;;;;;;4996955;28;20168;-58
2023/12/08 00:05:52;;;;;;;22.10;12.38;;;;;;;;;;4996858;28;20857;-58
2023/12/08 00:08:18;;;;;;;20.25;12.85;;;;;;;;;;4997057;28;20477;-58
2023/12/08 00:10:44;;;;;;;23.98;12.27;;;;;;;;;;4995846;28;20052;-58
2023/12/08 00:13:11;;;;;;;21.52;12.80;;;;;;;;;;4989497;28;20076;-58
2023/12/08 00:15:37;;;;;;;22.00;13.43;;;;;;;;;;4990562;28;20159;-58
2023/12/08 00:18:03;;;;;;;21.67;12.73;;;;;;;;;;4990946;28;20041;-58
2023/12/08 00:20:29;;;;;;;20.85;12.82;;;;;;;;;;4995347;28;20041;-58
2023/12/08 00:22:55;;;;;;;21.83;12.45;;;;;;;;;;4995883;28;20125;-58
2023/12/08 00:25:21;;;;;;;21.77;12.38;;;;;;;;;;4996330;28;20123;-58
2023/12/08 00:27:47;;;;;;;20.00;12.23;;;;;;;;;;4996651;28;20040;-58
2023/12/08 00:30:13;;;;;;;24.17;13.80;;;;;;;;;;4994166;28;20507;-58
2023/12/08 00:32:39;;;;;;;19.88;12.55;;;;;;;;;;4996956;28;20064;-58
2023/12/08 00:35:05;;;;;;;20.25;12.75;;;;;;;;;;4997766;28;20034;-58
2023/12/08 00:37:32;;;;;;;21.52;13.73;;;;;;;;;;4996321;28;20038;-58
2023/12/08 00:39:58;;;;;;;23.45;12.63;;;;;;;;;;4997233;28;20492;-57
2023/12/08 00:42:25;;;;;;;20.35;12.52;;;;;;;;;;4996402;28;20045;-58
2023/12/08 00:44:51;;;;;;;22.63;12.93;;;;;;;;;;4995356;28;20054;-58
2023/12/08 00:47:17;;;;;;;21.45;13.20;;;;;;;;;;4994615;28;20049;-58
2023/12/08 00:49:43;;;;;;;19.83;12.70;;;;;;;;;;4996270;28;20041;-58
2023/12/08 00:52:09;;;;;;;21.27;13.13;;;;;;;;;;4996958;28;20042;-58
2023/12/08 00:54:35;;;;;;;20.33;12.23;;;;;;;;;;4996355;28;20033;-57
2023/12/08 00:57:02;;;;;;;22.17;13.13;;;;;;;;;;4996726;28;20038;-57
2023/12/08 00:59:28;;;;;;;20.67;13.55;;;;;;;;;;4994535;28;20116;-58
2023/12/08 01:01:54;;;;;;;22.42;12.98;;;;;;;;;;4991184;28;20129;-58
2023/12/08 01:04:20;;;;;;;23.73;14.43;;;;;;;;;;4994962;28;20034;-58
2023/12/08 01:06:46;;;;;;;23.98;13.43;;;;;;;;;;4995239;28;20176;-58
2023/12/08 01:09:12;;;;;;;19.25;12.20;;;;;;;;;;4997040;28;20038;-58
2023/12/08 01:11:38;;;;;;;20.75;13.13;;;;;;;;;;5000100;28;20038;-58
2023/12/08 01:14:05;;;;;;;21.67;13.30;;;;;;;;;;4999121;28;20076;-58
2023/12/08 01:16:31;;;;;;;21.70;12.80;;;;;;;;;;4999598;28;20049;-58
2023/12/08 01:18:57;;;;;;;19.98;12.82;;;;;;;;;;4996185;28;20052;-59
2023/12/08 01:21:23;;;;;;;20.83;13.07;;;;;;;;;;5000143;28;20041;-58
2023/12/08 01:23:49;;;;;;;20.42;13.13;;;;;;;;;;4999378;28;20087;-58
2023/12/08 01:26:15;;;;;;;24.35;13.45;;;;;;;;;;5000338;28;20045;-58
2023/12/08 01:28:41;;;;;;;20.73;13.30;;;;;;;;;;4999071;28;20049;-58
2023/12/08 01:31:07;;;;;;;19.98;13.05;;;;;;;;;;4999702;28;20048;-58
2023/12/08 01:33:33;;;;;;;20.25;12.18;;;;;;;;;;5000676;28;20044;-58
2023/12/08 01:35:59;;;;;;;22.63;14.02;;;;;;;;;;4996465;28;20105;-58
2023/12/08 01:38:25;;;;;;;19.95;13.18;;;;;;;;;;5000026;28;20045;-58
2023/12/08 01:40:51;;;;;;;25.02;13.45;;;;;;;;;;4998525;28;20200;-58
2023/12/08 01:43:18;;;;;;;20.33;13.52;;;;;;;;;;4994216;28;20065;-58
2023/12/08 01:45:44;;;;;;;22.73;13.75;;;;;;;;;;5011163;28;20476;-58
2023/12/08 01:48:11;;;;;;;22.35;13.63;;;;;;;;;;4999197;28;20084;-58
2023/12/08 01:50:37;;;;;;;21.42;12.82;;;;;;;;;;4998266;28;20029;-58
2023/12/08 01:53:03;;;;;;;22.17;13.05;;;;;;;;;;4996599;28;20065;-58
2023/12/08 01:55:30;;;;;;;23.73;13.20;;;;;;;;;;4999800;28;20045;-58
2023/12/08 01:57:56;;;;;;;21.77;14.25;;;;;;;;;;4998636;28;20037;-58
2023/12/08 02:00:22;;;;;;;20.35;13.40;;;;;;;;;;4999244;28;20124;-58
2023/12/08 02:02:49;;;;;;;21.45;14.07;;;;;;;;;;4999094;28;20040;-58
2023/12/08 02:05:16;;;;;;;21.42;14.32;;;;;;;;;;5012392;28;20068;-58
2023/12/08 02:07:43;;;;;;;21.15;13.50;;;;;;;;;;5014199;28;20045;-58
2023/12/08 02:10:09;;;;;;;20.17;12.80;;;;;;;;;;4996295;28;20050;-58
2023/12/08 02:12:35;;;;;;;21.95;13.48;;;;;;;;;;4999255;28;20033;-58
2023/12/08 02:15:01;;;;;;;19.73;12.27;;;;;;;;;;4996557;28;20807;-58
2023/12/08 02:17:38;;;;;;;21.20;14.27;;;;;;;;;;4998553;28;20540;-58
2023/12/08 02:20:05;;;;;;;22.40;13.80;;;;;;;;;;4997692;28;20037;-58
2023/12/08 02:22:31;;;;;;;23.27;13.57;;;;;;;;;;4996458;28;20045;-59
2023/12/08 02:24:57;;;;;;;19.00;12.68;;;;;;;;;;4996092;28;20033;-58
2023/12/08 02:27:23;;;;;;;20.83;13.25;;;;;;;;;;4998305;28;20053;-58
2023/12/08 02:29:49;;;;;;;20.55;12.60;;;;;;;;;;4999125;28;20029;-58
2023/12/08 02:32:22;;;;;;;26.80;15.43;;;;;;;;;;4998660;28;20133;-58
2023/12/08 02:34:49;;;;;;;19.67;13.23;;;;;;;;;;4999955;28;20175;-58
2023/12/08 02:37:17;;;;;;;20.73;13.82;;;;;;;;;;4997895;28;20034;-58
2023/12/08 02:39:44;;;;;;;21.17;13.40;;;;;;;;;;4998482;28;20037;-58
2023/12/08 02:42:11;;;;;;;21.65;13.40;;;;;;;;;;4996716;28;20038;-58
2023/12/08 02:44:37;;;;;;;20.02;13.20;;;;;;;;;;4997702;28;20041;-58
2023/12/08 02:47:03;;;;;;;23.27;14.10;;;;;;;;;;4998748;28;20113;-58
2023/12/08 02:49:29;;;;;;;19.98;13.15;;;;;;;;;;4998556;28;21008;-58
2023/12/08 02:51:55;;;;;;;24.50;13.88;;;;;;;;;;4998321;28;20709;-58
2023/12/08 02:54:21;;;;;;;21.83;14.63;;;;;;;;;;4997867;28;20552;-59
2023/12/08 02:56:47;;;;;;;22.00;13.18;;;;;;;;;;4997653;28;20041;-58
2023/12/08 02:59:13;;;;;;;20.00;13.57;;;;;;;;;;4995914;28;20038;-59
2023/12/08 03:01:39;;;;;;;21.05;13.80;;;;;;;;;;4997899;28;20037;-58
2023/12/08 03:04:06;;;;;;;20.45;13.57;;;;;;;;;;4996351;28;20049;-58
2023/12/08 03:06:32;;;;;;;22.88;14.75;;;;;;;;;;4997372;28;20046;-58
2023/12/08 03:08:58;;;;;;;22.65;13.57;;;;;;;;;;4997847;28;20068;-58
2023/12/08 03:11:24;;;;;;;22.90;14.15;;;;;;;;;;4997310;28;20072;-58
2023/12/08 03:13:50;;;;;;;22.00;13.85;;;;;;;;;;4995751;28;20993;-58
2023/12/08 03:16:16;;;;;;;22.02;13.65;;;;;;;;;;4993662;28;20125;-58
2023/12/08 03:18:42;;;;;;;22.98;14.05;;;;;;;;;;4997561;28;20132;-58
2023/12/08 03:21:08;;;;;;;20.00;13.00;;;;;;;;;;4996019;28;20145;-58
2023/12/08 03:23:34;;;;;;;24.13;13.45;;;;;;;;;;4995676;28;20133;-58
2023/12/08 03:26:01;;;;;;;23.50;13.68;;;;;;;;;;4997236;28;20164;-58
2023/12/08 03:28:27;;;;;;;21.35;13.85;;;;;;;;;;4996774;28;20038;-58
2023/12/08 03:30:53;;;;;;;21.10;12.70;;;;;;;;;;4996917;28;20112;-58
2023/12/08 03:33:19;;;;;;;21.52;12.95;;;;;;;;;;4994880;28;20149;-58
2023/12/08 03:35:45;;;;;;;22.92;14.13;;;;;;;;;;4995454;28;20163;-58
2023/12/08 03:38:11;;;;;;;20.67;13.15;;;;;;;;;;4995381;28;20134;-58
2023/12/08 03:40:37;;;;;;;21.80;14.77;;;;;;;;;;4996703;28;20114;-58
2023/12/08 03:43:03;;;;;;;21.40;13.32;;;;;;;;;;4995837;28;20046;-58
2023/12/08 03:45:29;;;;;;;20.02;12.95;;;;;;;;;;4996678;28;20152;-58
2023/12/08 03:47:55;;;;;;;21.73;13.95;;;;;;;;;;4997059;28;20038;-58
2023/12/08 03:50:21;;;;;;;19.90;13.13;;;;;;;;;;4994547;28;20033;-58
2023/12/08 03:52:52;;;;;;;20.58;12.77;;;;;;;;;;4997123;28;21792;-58
2023/12/08 03:55:18;;;;;;;21.50;13.20;;;;;;;;;;4996174;28;21022;-58
2023/12/08 03:57:44;;;;;;;20.95;13.82;;;;;;;;;;4996846;28;20045;-58
2023/12/08 04:00:11;;;;;;;23.60;13.50;;;;;;;;;;4996628;28;20045;-58
2023/12/08 04:02:37;;;;;;;21.23;13.50;;;;;;;;;;4996179;28;20037;-58
2023/12/08 04:05:03;;;;;;;20.25;12.85;;;;;;;;;;4995579;28;20187;-59
2023/12/08 04:07:29;;;;;;;23.23;13.32;;;;;;;;;;4995017;28;20037;-58
2023/12/08 04:09:55;;;;;;;20.95;13.57;;;;;;;;;;4997160;28;20033;-58
2023/12/08 04:12:22;;;;;;;20.77;13.18;;;;;;;;;;4997085;28;20033;-58
2023/12/08 04:14:48;;;;;;;22.10;13.90;;;;;;;;;;4994053;28;20043;-58
2023/12/08 04:17:14;;;;;;;20.67;14.15;;;;;;;;;;4996619;28;20944;-58
2023/12/08 04:19:40;;;;;;;22.25;14.07;;;;;;;;;;4996261;28;20036;-58
2023/12/08 04:22:06;;;;;;;22.00;14.43;;;;;;;;;;4995420;28;20478;-58
2023/12/08 04:24:32;;;;;;;20.90;13.50;;;;;;;;;;4994979;28;21550;-58
2023/12/08 04:26:58;;;;;;;22.80;13.55;;;;;;;;;;4995485;28;20969;-57
2023/12/08 04:29:24;;;;;;;22.52;13.25;;;;;;;;;;4995789;28;20034;-58
2023/12/08 04:31:50;;;;;;;24.27;13.88;;;;;;;;;;4997340;28;20037;-58
2023/12/08 04:34:16;;;;;;;21.33;13.10;;;;;;;;;;4997078;28;20034;-58
2023/12/08 04:36:42;;;;;;;23.30;14.40;;;;;;;;;;4996262;28;20048;-58
2023/12/08 04:39:08;;;;;;;23.85;13.75;;;;;;;;;;4994322;28;20038;-58
2023/12/08 04:41:34;;;;;;;22.83;13.57;;;;;;;;;;4996879;28;20045;-58
2023/12/08 04:44:00;;;;;;;23.10;13.70;;;;;;;;;;4996803;28;20053;-59
2023/12/08 04:46:26;;;;;;;23.60;14.52;;;;;;;;;;5000957;28;20042;-59
2023/12/08 04:48:52;;;;;;;23.63;13.55;;;;;;;;;;5001200;28;20038;-59
2023/12/08 04:51:19;;;;;;;26.30;14.23;;;;;;;;;;5001130;28;21757;-60
2023/12/08 04:53:45;;;;;;;24.55;14.02;;;;;;;;;;5000268;28;20034;-60
2023/12/08 04:56:11;;;;;;;24.73;15.30;;;;;;;;;;4998029;28;20103;-60
2023/12/08 04:58:39;;;;;;;25.50;14.43;;;;;;;;;;4999290;28;20037;-60
2023/12/08 05:01:05;;;;;;;27.10;15.13;;;;;;;;;;5000104;28;20041;-60
2023/12/08 05:03:31;;;;;;;25.38;14.20;;;;;;;;;;5001349;28;20045;-60
2023/12/08 05:05:57;;;;;;;25.85;14.65;;;;;;;;;;5001038;28;20037;-59
2023/12/08 05:08:23;;;;;;;29.98;14.88;;;;;;;;;;5000713;28;21678;-59
2023/12/08 05:10:49;;;;;;;29.95;14.98;;;;;;;;;;5002060;28;20868;-59
2023/12/08 05:13:15;;;;;;;24.33;14.40;;;;;;;;;;4997980;28;20041;-59
2023/12/08 05:15:41;;;;;;;29.33;14.75;;;;;;;;;;5000615;28;20649;-59
2023/12/08 05:18:08;;;;;;;27.90;15.45;;;;;;;;;;5000971;28;20168;-59
2023/12/08 05:20:34;;;;;;;29.02;16.30;;;;;;;;;;5000586;28;20041;-59
2023/12/08 05:23:00;;;;;;;26.13;15.18;;;;;;;;;;5000729;28;20044;-59
2023/12/08 05:25:26;;;;;;;25.05;14.85;;;;;;;;;;4999728;28;20041;-59
2023/12/08 05:27:52;;;;;;;27.25;15.68;;;;;;;;;;5000808;28;20033;-59
2023/12/08 05:30:18;;;;;;;29.00;16.27;;;;;;;;;;4997687;28;20042;-59
2023/12/08 05:32:44;;;;;;;25.95;14.88;;;;;;;;;;5001346;28;20041;-59
2023/12/08 05:35:10;;;;;;;26.58;15.05;;;;;;;;;;4999941;28;20076;-59
2023/12/08 05:37:36;;;;;;;26.27;15.32;;;;;;;;;;5000666;28;20065;-59
2023/12/08 05:40:03;;;;;;;27.67;16.05;;;;;;;;;;4999595;28;20053;-59
2023/12/08 05:42:29;;;;;;;25.90;16.33;;;;;;;;;;4999982;28;20673;-59
2023/12/08 05:44:55;;;;;;;29.52;16.08;;;;;;;;;;4999724;28;20511;-59
2023/12/08 05:47:21;;;;;;;27.15;15.32;;;;;;;;;;4997583;28;20038;-59
2023/12/08 05:49:47;;;;;;;23.92;14.45;;;;;;;;;;4995407;28;20042;-59
2023/12/08 05:52:13;;;;;;;26.38;14.68;;;;;;;;;;5000008;28;20033;-59
2023/12/08 05:54:40;;;;;;;28.70;15.15;;;;;;;;;;4999029;28;20469;-59
2023/12/08 05:57:06;;;;;;;30.45;15.57;;;;;;;;;;4997810;28;20565;-59
2023/12/08 05:59:32;;;;;;;28.88;14.77;;;;;;;;;;4998632;28;21304;-59
2023/12/08 06:01:58;;;;;;;25.10;14.23;;;;;;;;;;4993957;28;20044;-59
2023/12/08 06:04:24;;;;;;;25.15;14.63;;;;;;;;;;4998445;28;20047;-59
2023/12/08 06:06:51;;;;;;;22.85;14.27;;;;;;;;;;4998982;28;20040;-59
2023/12/08 06:09:17;;;;;;;28.52;15.93;;;;;;;;;;4999385;28;20160;-59
2023/12/08 06:11:43;;;;;;;29.23;15.57;;;;;;;;;;4996104;28;20033;-59
2023/12/08 06:14:09;;;;;;;25.85;15.02;;;;;;;;;;4999004;28;20030;-59
2023/12/08 06:16:36;;;;;;;27.02;14.65;;;;;;;;;;4997705;28;20041;-59
2023/12/08 06:19:03;;;;;;;25.23;16.00;;;;;;;;;;4997326;28;20033;-59
2023/12/08 06:21:30;;;;;;;25.48;15.25;;;;;;;;;;4992593;28;20151;-59
2023/12/08 06:23:56;;;;;;;25.02;14.05;;;;;;;;;;4996257;28;20072;-59
2023/12/08 06:26:24;;;;;;;26.98;15.05;;;;;;;;;;4999110;28;20048;-59
2023/12/08 06:28:50;;;;;;;26.55;14.88;;;;;;;;;;4997637;28;20036;-59
2023/12/08 06:31:16;;;;;;;27.10;15.25;;;;;;;;;;4997512;28;20116;-59
2023/12/08 06:33:42;;;;;;;28.13;16.00;;;;;;;;;;5012010;28;20033;-58
2023/12/08 06:36:08;;;;;;;27.38;16.10;;;;;;;;;;4995144;28;20052;-58
2023/12/08 06:38:37;;;;;;;26.25;14.88;;;;;;;;;;4998256;28;20687;-58
2023/12/08 06:41:03;;;;;;;26.67;14.45;;;;;;;;;;4994430;28;20083;-58
2023/12/08 06:43:29;;;;;;;23.98;14.88;;;;;;;;;;4999263;28;20156;-58
2023/12/08 06:45:55;;;;;;;26.90;16.00;;;;;;;;;;4997522;28;20072;-58
2023/12/08 06:48:23;;;;;;;27.08;16.00;;;;;;;;;;4998874;28;20029;-58
2023/12/08 06:50:49;;;;;;;26.15;15.35;;;;;;;;;;4996116;28;20040;-58
2023/12/08 06:53:16;;;;;;;24.95;15.20;;;;;;;;;;4994641;28;20049;-58
2023/12/08 06:55:42;;;;;;;26.02;16.08;;;;;;;;;;4998246;28;20042;-58
2023/12/08 06:58:08;;;;;;;24.27;14.15;;;;;;;;;;4998320;28;20080;-58
2023/12/08 07:00:34;;;;;;;25.13;15.43;;;;;;;;;;4997899;28;20529;-58
2023/12/08 07:03:01;;;;;;;27.42;16.20;;;;;;;;;;4993038;28;20033;-58
2023/12/08 07:05:27;;;;;;;26.75;15.68;;;;;;;;;;4997324;28;20153;-58
2023/12/08 07:07:54;;;;;;;29.98;16.33;;;;;;;;;;4988961;28;20069;-58
2023/12/08 07:10:20;;;;;;;27.58;15.05;;;;;;;;;;4982491;28;20208;-58
2023/12/08 07:12:47;;;;;;;26.52;15.98;;;;;;;;;;4988568;28;20048;-58
2023/12/08 07:15:13;;;;;;;25.23;15.68;;;;;;;;;;4995961;28;20041;-58
2023/12/08 07:17:39;;;;;;;23.73;15.07;;;;;;;;;;4997159;28;20030;-58
2023/12/08 07:20:06;;;;;;;24.00;14.93;;;;;;;;;;4997021;28;20041;-58
2023/12/08 07:22:33;;;;;;;25.90;15.18;;;;;;;;;;4993484;28;20481;-58
2023/12/08 07:24:59;;;;;;;26.15;16.20;;;;;;;;;;4996778;28;20037;-58
2023/12/08 07:27:26;;;;;;;26.52;14.77;;;;;;;;;;4993290;28;20048;-58
2023/12/08 07:29:52;;;;;;;26.85;15.80;;;;;;;;;;4996881;28;20041;-58
2023/12/08 07:32:18;;;;;;;28.58;15.80;;;;;;;;;;4997858;28;20057;-58
2023/12/08 07:34:44;;;;;;;25.45;14.68;;;;;;;;;;4996817;28;20025;-58
2023/12/08 07:37:10;;;;;;;25.17;14.38;;;;;;;;;;4998161;28;20033;-58
2023/12/08 07:39:36;;;;;;;22.85;13.98;;;;;;;;;;4997817;28;20034;-58
2023/12/08 07:42:03;;;;;;;26.98;14.23;;;;;;;;;;4992845;28;20038;-57
2023/12/08 07:44:29;;;;;;;23.98;14.48;;;;;;;;;;4996719;28;20556;-58
2023/12/08 07:46:56;;;;;;;26.67;16.17;;;;;;;;;;4992679;28;20103;-58
2023/12/08 07:49:22;;;;;;;24.30;14.80;;;;;;;;;;4996273;28;20076;-58
2023/12/08 07:51:48;;;;;;;23.40;14.02;;;;;;;;;;4997541;28;20065;-58
2023/12/08 07:54:14;;;;;;;24.85;15.15;;;;;;;;;;4993262;28;20044;-58
2023/12/08 07:56:40;;;;;;;24.92;14.77;;;;;;;;;;4992010;28;20045;-58
2023/12/08 07:59:07;;;;;;;25.45;15.35;;;;;;;;;;4991452;28;20036;-57
2023/12/08 08:01:33;;;;;;;24.95;14.88;;;;;;;;;;4991444;28;20061;-58
2023/12/08 08:03:59;;;;;;;22.52;14.05;;;;;;;;;;4990526;28;20048;-58
2023/12/08 08:06:25;;;;;;;23.00;13.45;;;;;;;;;;4990139;28;20033;-58
2023/12/08 08:08:51;;;;;;;27.85;15.32;;;;;;;;;;4990023;28;20029;-58
2023/12/08 08:11:17;;;;;;;25.92;15.27;;;;;;;;;;4990017;28;20040;-58
2023/12/08 08:13:43;;;;;;;23.17;15.30;;;;;;;;;;4990332;28;20056;-58
2023/12/08 08:16:09;;;;;;;25.60;14.88;;;;;;;;;;4994113;28;20040;-58
2023/12/08 08:18:35;;;;;;;29.20;15.30;;;;;;;;;;4996676;28;20045;-58
2023/12/08 08:21:01;;;;;;;24.85;15.05;;;;;;;;;;4998545;28;20046;-58
2023/12/08 08:23:27;;;;;;;26.00;14.32;;;;;;;;;;4998593;28;20037;-58
2023/12/08 08:25:53;;;;;;;25.40;15.55;;;;;;;;;;4996583;28;20033;-58
2023/12/08 08:28:20;;;;;;;27.25;15.48;;;;;;;;;;4997453;28;20065;-58
2023/12/08 08:30:46;;;;;;;25.02;14.48;;;;;;;;;;4998118;28;20069;-58
2023/12/08 08:33:12;;;;;;;25.50;16.13;;;;;;;;;;4994247;28;20087;-58
2023/12/08 08:35:40;;;;;;;23.13;14.13;;;;;;;;;;4998138;28;20114;-58
2023/12/08 08:38:06;;;;;;;26.35;14.93;;;;;;;;;;4998467;28;20485;-58
2023/12/08 08:40:32;;;;;;;24.27;14.85;;;;;;;;;;4998412;28;20860;-58
2023/12/08 08:42:59;;;;;;;31.48;16.40;;;;;;;;;;4997373;28;20033;-58
2023/12/08 08:45:25;;;;;;;25.60;15.77;;;;;;;;;;4995878;28;20065;-58
2023/12/08 08:47:51;;;;;;;26.85;15.07;;;;;;;;;;4997404;28;20119;-58
2023/12/08 08:50:17;;;;;;;26.95;15.65;;;;;;;;;;4994594;28;20064;-58
2023/12/08 08:52:43;;;;;;;28.38;16.05;;;;;;;;;;4995844;28;20030;-58
2023/12/08 08:55:10;;;;;;;25.17;14.88;;;;;;;;;;4998243;28;20029;-58
2023/12/08 08:57:36;;;;;;;25.38;15.85;;;;;;;;;;4995857;28;20029;-58
2023/12/08 09:00:04;;;;;;;24.38;15.30;;;;;;;;;;4996555;28;20053;-58
2023/12/08 09:02:30;;;;;;;26.33;15.13;;;;;;;;;;4998588;28;20052;-58
2023/12/08 09:04:56;;;;;;;24.30;14.85;;;;;;;;;;4998066;28;20034;-58
2023/12/08 09:07:22;;;;;;;25.13;16.00;;;;;;;;;;4998633;28;20037;-58
2023/12/08 09:09:48;;;;;;;26.33;16.27;;;;;;;;;;5000511;28;20033;-58
2023/12/08 09:12:14;;;;;;;24.60;15.50;;;;;;;;;;4994376;28;20135;-58
2023/12/08 09:14:40;;;;;;;25.83;15.27;;;;;;;;;;4994427;28;20041;-58
2023/12/08 09:17:06;;;;;;;28.67;16.85;;;;;;;;;;4994060;28;20857;-58
2023/12/08 09:19:33;;;;;;;24.17;15.00;;;;;;;;;;4994423;28;20633;-58
2023/12/08 09:21:59;;;;;;;26.73;15.50;;;;;;;;;;4995658;28;20065;-58
2023/12/08 09:24:26;;;;;;;29.15;16.58;;;;;;;;;;4997569;28;20949;-58
2023/12/08 09:26:55;;;;;;;26.55;15.55;;;;;;;;;;4997459;28;20748;-58
2023/12/08 09:29:21;;;;;;;27.40;15.88;;;;;;;;;;4996935;28;20037;-58
2023/12/08 09:31:47;;;;;;;27.27;16.25;;;;;;;;;;5000468;28;20029;-58
2023/12/08 09:34:13;;;;;;;27.73;15.82;;;;;;;;;;5000650;28;20044;-58
2023/12/08 09:36:40;;;;;;;28.00;15.68;;;;;;;;;;5001689;28;20030;-58
2023/12/08 09:39:08;;;;;;;25.10;15.30;;;;;;;;;;5000394;28;20111;-58
2023/12/08 09:41:35;;;;;;;25.77;14.73;;;;;;;;;;5000757;28;20029;-58
2023/12/08 09:44:06;;;;;;;26.20;16.10;;;;;;;;;;4997977;28;20053;-58
2023/12/08 09:46:34;;;;;;;24.63;14.25;;;;;;;;;;5000890;28;20109;-58
2023/12/08 09:49:01;;;;;;;26.73;15.57;;;;;;;;;;4998955;28;20026;-58
2023/12/08 09:51:28;;;;;;;24.65;15.43;;;;;;;;;;5000936;28;20037;-58
2023/12/08 09:53:55;;;;;;;26.52;15.38;;;;;;;;;;4997416;28;20109;-58
2023/12/08 09:56:23;;;;;;;25.75;16.08;;;;;;;;;;5000860;28;20029;-57
2023/12/08 09:58:49;;;;;;;25.15;15.77;;;;;;;;;;5006430;28;20026;-58
2023/12/08 10:01:17;;;;;;;29.77;15.93;;;;;;;;;;5007774;28;20084;-58
2023/12/08 10:03:44;;;;;;;24.73;14.90;;;;;;;;;;5007011;28;20263;-58
2023/12/08 10:06:10;;;;;;;22.98;15.43;;;;;;;;;;5008359;28;20056;-58
2023/12/08 10:08:37;;;;;;;26.08;15.27;;;;;;;;;;5007636;28;20035;-58
2023/12/08 10:11:05;;;;;;;25.67;15.80;;;;;;;;;;5007469;28;20091;-58
2023/12/08 10:13:31;;;;;;;26.38;15.57;;;;;;;;;;5007470;28;20489;-58
2023/12/08 10:15:57;;;;;;;27.00;15.13;;;;;;;;;;5007629;28;20124;-58
2023/12/08 10:18:27;;;;;;;26.85;15.13;;;;;;;;;;5004480;28;20441;-58
2023/12/08 10:21:12;;;;;;;27.35;15.85;;;;;;;;;;5008033;28;20933;-58
2023/12/08 10:23:38;;;;;;;25.52;16.63;;;;;;;;;;5005653;28;20095;-58
2023/12/08 10:26:05;;;;;;;26.48;16.27;;;;;;;;;;5000623;28;20033;-58
2023/12/08 10:28:34;;;;;;;25.17;15.18;;;;;;;;;;5001053;28;20068;-58
2023/12/08 10:31:00;;;;;;;25.27;15.82;;;;;;;;;;5001064;28;20107;-58
2023/12/08 10:33:26;;;;;;;26.58;16.63;;;;;;;;;;5000841;28;20033;-58
2023/12/08 10:35:52;;;;;;;25.20;15.48;;;;;;;;;;5001038;28;20049;-58
2023/12/08 10:38:20;;;;;;;26.88;15.60;;;;;;;;;;4999626;28;20037;-58
2023/12/08 10:40:47;;;;;;;29.85;16.98;;;;;;;;;;4998279;28;20041;-58
2023/12/08 10:43:23;;;;;;;24.48;15.73;;;;;;;;;;4997827;28;20108;-58
2023/12/08 10:45:50;;;;;;;22.92;14.18;;;;;;;;;;4998987;28;20044;-58
2023/12/08 10:48:16;;;;;;;26.60;15.95;;;;;;;;;;5000106;28;20663;-58
2023/12/08 10:50:43;;;;;;;26.10;16.40;;;;;;;;;;4999418;28;20040;-58
2023/12/08 10:53:09;;;;;;;27.08;16.77;;;;;;;;;;5000638;28;20061;-58
2023/12/08 10:55:35;;;;;;;25.67;16.33;;;;;;;;;;5000038;28;20030;-58
2023/12/08 10:58:03;;;;;;;23.95;15.90;;;;;;;;;;4999973;28;20607;-58
2023/12/08 11:00:32;;;;;;;26.50;16.75;;;;;;;;;;5003425;28;20037;-58
2023/12/08 11:02:59;;;;;;;28.40;16.38;;;;;;;;;;5002662;28;20029;-58
2023/12/08 11:05:37;;;;;;;24.10;15.73;;;;;;;;;;5001246;28;20041;-58
2023/12/08 11:08:03;;;;;;;26.20;15.93;;;;;;;;;;5000814;28;20040;-60
2023/12/08 11:10:31;;;;;;;26.42;15.80;;;;;;;;;;5000802;28;20043;-60
2023/12/08 11:13:01;;;;;;;24.40;16.02;;;;;;;;;;5000361;28;20033;-60
2023/12/08 11:15:27;;;;;;;26.55;16.45;;;;;;;;;;5001317;28;20481;-60
2023/12/08 11:17:58;;;;;;;27.58;17.10;;;;;;;;;;5003877;28;20041;-60
2023/12/08 11:20:24;;;;;;;27.85;15.82;;;;;;;;;;5006817;28;20076;-60
2023/12/08 11:22:50;;;;;;;28.38;16.83;;;;;;;;;;5007028;28;20037;-59
2023/12/08 11:25:25;;;;;;;26.30;16.30;;;;;;;;;;5006306;28;20088;-60
2023/12/08 11:28:05;;;;;;;28.80;16.75;;;;;;;;;;5006790;28;20420;-60
2023/12/08 11:30:58;;;;;;;28.23;16.83;;;;;;;;;;5007351;28;20133;-60
2023/12/08 11:33:44;;;;;;;30.17;17.98;;;;;;;;;;5005023;28;20038;-60
2023/12/08 11:36:11;;;;;;;28.40;16.55;;;;;;;;;;5006517;28;20121;-60
2023/12/08 11:38:38;;;;;;;29.10;16.75;;;;;;;;;;5006793;28;20112;-60
2023/12/08 11:41:13;;;;;;;32.90;17.23;;;;;;;;;;5006865;28;20038;-60
2023/12/08 11:43:46;;;;;;;33.00;18.08;;;;;;;;;;5006240;28;20042;-60
2023/12/08 11:46:12;;;;;;;30.85;17.48;;;;;;;;;;5005379;28;20041;-60
2023/12/08 11:48:38;;;;;;;32.15;17.25;;;;;;;;;;5005021;28;20040;-60
2023/12/08 11:51:06;;;;;;;31.67;18.05;;;;;;;;;;5006250;28;20048;-60
2023/12/08 11:53:32;;;;;;;34.10;17.58;;;;;;;;;;5006527;28;20030;-60
2023/12/08 11:55:59;;;;;;;31.30;18.15;;;;;;;;;;5006205;28;20068;-60
2023/12/08 11:58:33;;;;;;;37.35;18.42;;;;;;;;;;5006056;28;20041;-60
2023/12/08 12:01:05;;;;;;;32.10;18.88;;;;;;;;;;5005737;28;20455;-60
2023/12/08 12:03:31;;;;;;;36.13;20.40;;;;;;;;;;5005249;28;20041;-60
2023/12/08 12:05:57;;;;;;;37.47;19.25;;;;;;;;;;5005359;28;21035;-60
2023/12/08 12:08:26;;;;;;;34.22;17.58;;;;;;;;;;5005913;28;20084;-60
2023/12/08 12:10:53;;;;;;;31.05;17.95;;;;;;;;;;5005555;28;20030;-60
2023/12/08 12:13:20;;;;;;;42.70;19.00;;;;;;;;;;5006415;28;20038;-60
2023/12/08 12:15:46;;;;;;;33.00;16.98;;;;;;;;;;5005901;28;20050;-60
2023/12/08 12:18:13;;;;;;;35.75;18.38;;;;;;;;;;5005850;28;20037;-60
2023/12/08 12:20:39;;;;;;;36.22;18.98;;;;;;;;;;5005956;28;20038;-60
2023/12/08 12:23:05;;;;;;;40.55;19.48;;;;;;;;;;5004400;28;20076;-60
2023/12/08 12:25:31;;;;;;;35.78;18.50;;;;;;;;;;5000577;28;20115;-60
2023/12/08 12:27:57;;;;;;;31.90;19.02;;;;;;;;;;5002800;28;20044;-60
2023/12/08 12:30:23;;;;;;;44.80;20.15;;;;;;;;;;5001182;28;20141;-61
2023/12/08 12:32:50;;;;;;;35.35;20.58;;;;;;;;;;5001839;28;20045;-60
2023/12/08 12:35:16;;;;;;;36.90;19.38;;;;;;;;;;5004334;28;20040;-60
2023/12/08 12:37:45;;;;;;;35.13;20.17;;;;;;;;;;5000587;28;20997;-60
2023/12/08 12:40:11;;;;;;;35.75;19.33;;;;;;;;;;4996166;28;20042;-60
2023/12/08 12:42:42;;;;;;;39.88;19.92;;;;;;;;;;4998378;28;20034;-60
2023/12/08 12:45:09;;;;;;;42.63;21.80;;;;;;;;;;4997151;28;20095;-61
2023/12/08 12:47:35;;;;;;;42.33;20.92;;;;;;;;;;4992888;28;20156;-60
2023/12/08 12:50:04;;;;;;;38.60;20.80;;;;;;;;;;4992393;28;20048;-60
2023/12/08 12:52:31;;;;;;;42.80;21.75;;;;;;;;;;4994664;28;20029;-60
2023/12/08 12:54:57;;;;;;;35.78;19.33;;;;;;;;;;4988575;28;20099;-60
2023/12/08 12:57:44;;;;;;;40.65;20.42;;;;;;;;;;4990430;28;20040;-60
2023/12/08 13:00:11;;;;;;;49.30;20.48;;;;;;;;;;4991074;28;20037;-60
2023/12/08 13:02:38;;;;;;;41.72;20.30;;;;;;;;;;4991541;28;20037;-60
2023/12/08 13:05:07;;;;;;;41.30;22.65;;;;;;;;;;4991629;28;20029;-60
2023/12/08 13:07:34;;;;;;;42.85;21.25;;;;;;;;;;5001140;28;20416;-60
2023/12/08 13:10:01;;;;;;;40.08;21.48;;;;;;;;;;4997973;28;20060;-60
2023/12/08 13:12:27;;;;;;;41.90;20.77;;;;;;;;;;4999336;28;20033;-60
2023/12/08 13:14:53;;;;;;;43.15;21.60;;;;;;;;;;5006539;28;20029;-60
2023/12/08 13:17:20;;;;;;;45.35;22.20;;;;;;;;;;5005276;28;20128;-60
2023/12/08 13:19:47;;;;;;;43.90;22.08;;;;;;;;;;5001572;28;20431;-60
2023/12/08 13:22:14;;;;;;;47.15;21.90;;;;;;;;;;4999365;28;20504;-60
2023/12/08 13:24:40;;;;;;;44.60;23.30;;;;;;;;;;4998202;28;20173;-60
2023/12/08 13:27:06;;;;;;;43.65;21.10;;;;;;;;;;4998429;28;20044;-60
2023/12/08 13:29:32;;;;;;;43.97;21.33;;;;;;;;;;5001207;28;20512;-60
2023/12/08 13:31:58;;;;;;;41.47;20.75;;;;;;;;;;4997237;28;20034;-61
2023/12/08 13:34:25;;;;;;;45.20;20.95;;;;;;;;;;4997348;28;20044;-60
2023/12/08 13:36:51;;;;;;;44.08;21.40;;;;;;;;;;5000865;28;20932;-60
2023/12/08 13:39:17;;;;;;;46.28;21.33;;;;;;;;;;4996342;28;20029;-60
2023/12/08 13:41:43;;;;;;;59.25;23.17;;;;;;;;;;4999958;28;20076;-60
2023/12/08 13:44:09;;;;;;;49.33;22.50;;;;;;;;;;5000208;28;20405;-60
2023/12/08 13:46:35;;;;;;;43.47;20.17;;;;;;;;;;5000418;28;20742;-60
2023/12/08 13:49:02;;;;;;;42.38;20.15;;;;;;;;;;4997950;28;20124;-60
2023/12/08 13:51:31;;;;;;;42.88;21.73;;;;;;;;;;4999466;28;20476;-60
2023/12/08 13:53:57;;;;;;;44.08;21.45;;;;;;;;;;4998170;28;20038;-59
2023/12/08 13:56:23;;;;;;;46.35;22.08;;;;;;;;;;4999268;28;20717;-60
2023/12/08 13:58:49;;;;;;;48.40;24.10;;;;;;;;;;4998417;28;20531;-60
2023/12/08 14:01:16;;;;;;;50.85;23.05;;;;;;;;;;4998858;28;20044;-60
2023/12/08 14:03:42;;;;;;;43.40;21.45;;;;;;;;;;5000392;28;20048;-60
2023/12/08 14:06:08;;;;;;;45.20;21.50;;;;;;;;;;4998182;28;20048;-60
2023/12/08 14:08:34;;;;;;;43.90;20.42;;;;;;;;;;4998206;28;21147;-60
2023/12/08 14:11:00;;;;;;;43.15;21.05;;;;;;;;;;4997092;28;20040;-60
2023/12/08 14:13:26;;;;;;;43.30;20.85;;;;;;;;;;4988321;28;20033;-60